sensor_id;sensor_type;location;lat;lon;timestamp;pressure;altitude;pressure_sealevel;temperature;humidity
3812;BME280;1921;49.368;11.068;2023-04-10T00:02:17;98471.09;;;4.03;86.75
3812;BME280;1921;49.368;11.068;2023-04-10T00:04:43;98428.88;;;3.93;87.44
3812;BME280;1921;49.368;11.068;2023-04-10T00:07:09;98403.25;;;3.67;87.11
3812;BME280;1921;49.368;11.068;2023-04-10T00:09:35;98427.53;;;3.76;87.44
3812;BME280;1921;49.368;11.068;2023-04-10T00:12:01;98429.91;;;3.79;87.79
3812;BME280;1921;49.368;11.068;2023-04-10T00:14:27;98439.97;;;3.82;87.90
3812;BME280;1921;49.368;11.068;2023-04-10T00:16:52;98464.75;;;3.96;88.46
3812;BME280;1921;49.368;11.068;2023-04-10T00:19:18;98400.41;;;3.59;89.55
3812;BME280;1921;49.368;11.068;2023-04-10T00:21:44;98412.75;;;3.67;90.79
3812;BME280;1921;49.368;11.068;2023-04-10T00:24:09;98443.75;;;3.89;90.95
3812;BME280;1921;49.368;11.068;2023-04-10T00:26:35;98417.47;;;3.73;89.71
3812;BME280;1921;49.368;11.068;2023-04-10T00:29:02;98421.31;;;3.78;89.89
3812;BME280;1921;49.368;11.068;2023-04-10T00:31:29;98420.50;;;3.78;89.58
3812;BME280;1921;49.368;11.068;2023-04-10T00:33:55;98384.94;;;3.48;89.87
3812;BME280;1921;49.368;11.068;2023-04-10T00:36:20;98401.91;;;3.50;90.40
3812;BME280;1921;49.368;11.068;2023-04-10T00:38:47;98384.06;;;3.36;90.47
3812;BME280;1921;49.368;11.068;2023-04-10T00:41:15;98387.13;;;3.41;90.23
3812;BME280;1921;49.368;11.068;2023-04-10T00:43:41;98379.84;;;3.35;90.29
3812;BME280;1921;49.368;11.068;2023-04-10T00:46:07;98384.28;;;3.33;90.01
3812;BME280;1921;49.368;11.068;2023-04-10T00:48:33;98424.88;;;3.54;89.38
3812;BME280;1921;49.368;11.068;2023-04-10T00:50:59;98436.75;;;3.56;89.97
3812;BME280;1921;49.368;11.068;2023-04-10T00:53:26;98348.81;;;3.02;89.99
3812;BME280;1921;49.368;11.068;2023-04-10T00:55:53;98370.16;;;3.15;90.61
3812;BME280;1921;49.368;11.068;2023-04-10T00:58:19;98432.94;;;3.38;91.28
3812;BME280;1921;49.368;11.068;2023-04-10T01:00:46;98425.41;;;3.23;90.93
3812;BME280;1921;49.368;11.068;2023-04-10T01:03:13;98365.72;;;2.82;90.86
3812;BME280;1921;49.368;11.068;2023-04-10T01:06:05;98433.06;;;3.36;91.42
3812;BME280;1921;49.368;11.068;2023-04-10T01:08:53;98439.56;;;3.29;91.96
3812;BME280;1921;49.368;11.068;2023-04-10T01:11:50;98450.72;;;3.30;91.85
3812;BME280;1921;49.368;11.068;2023-04-10T01:17:34;98290.84;;;2.00;91.73
3812;BME280;1921;49.368;11.068;2023-04-10T01:20:25;98392.84;;;2.38;94.85
3812;BME280;1921;49.368;11.068;2023-04-10T01:23:24;98452.38;;;2.70;94.70
3812;BME280;1921;49.368;11.068;2023-04-10T01:26:05;98422.06;;;2.50;94.34
3812;BME280;1921;49.368;11.068;2023-04-10T01:28:58;98386.13;;;2.35;94.00
3812;BME280;1921;49.368;11.068;2023-04-10T01:31:51;98439.63;;;2.68;93.17
3812;BME280;1921;49.368;11.068;2023-04-10T01:34:31;98381.91;;;2.34;93.55
3812;BME280;1921;49.368;11.068;2023-04-10T01:37:04;98431.50;;;2.62;93.42
3812;BME280;1921;49.368;11.068;2023-04-10T01:39:35;98427.28;;;2.61;93.78
3812;BME280;1921;49.368;11.068;2023-04-10T01:42:05;98422.75;;;2.52;93.32
3812;BME280;1921;49.368;11.068;2023-04-10T01:44:32;98390.38;;;2.36;92.64
3812;BME280;1921;49.368;11.068;2023-04-10T01:46:59;98440.25;;;2.59;92.59
3812;BME280;1921;49.368;11.068;2023-04-10T01:49:27;98392.53;;;2.30;93.07
3812;BME280;1921;49.368;11.068;2023-04-10T01:51:55;98369.38;;;2.17;93.18
3812;BME280;1921;49.368;11.068;2023-04-10T01:54:31;98426.25;;;2.51;93.37
3812;BME280;1921;49.368;11.068;2023-04-10T01:56:59;98343.50;;;1.95;93.21
3812;BME280;1921;49.368;11.068;2023-04-10T01:59:26;98398.31;;;2.21;93.36
3812;BME280;1921;49.368;11.068;2023-04-10T02:01:57;98417.84;;;2.23;93.57
3812;BME280;1921;49.368;11.068;2023-04-10T02:04:23;98408.19;;;2.14;94.81
3812;BME280;1921;49.368;11.068;2023-04-10T02:07:04;98412.13;;;1.94;97.23
3812;BME280;1921;49.368;11.068;2023-04-10T02:09:53;98393.72;;;1.87;96.67
3812;BME280;1921;49.368;11.068;2023-04-10T02:12:30;98396.38;;;1.73;97.90
3812;BME280;1921;49.368;11.068;2023-04-10T02:14:59;98428.25;;;1.71;99.53
3812;BME280;1921;49.368;11.068;2023-04-10T02:17:28;98409.53;;;1.56;99.52
3812;BME280;1921;49.368;11.068;2023-04-10T02:19:58;98432.47;;;1.72;98.95
3812;BME280;1921;49.368;11.068;2023-04-10T02:22:25;98422.31;;;1.70;97.96
3812;BME280;1921;49.368;11.068;2023-04-10T02:24:52;98394.44;;;1.64;98.01
3812;BME280;1921;49.368;11.068;2023-04-10T02:27:33;98424.56;;;1.87;97.59
3812;BME280;1921;49.368;11.068;2023-04-10T02:29:59;98375.72;;;1.62;97.51
3812;BME280;1921;49.368;11.068;2023-04-10T02:32:25;98416.13;;;1.85;96.67
3812;BME280;1921;49.368;11.068;2023-04-10T02:34:51;98433.72;;;2.04;97.25
3812;BME280;1921;49.368;11.068;2023-04-10T02:37:17;98435.69;;;2.01;96.57
3812;BME280;1921;49.368;11.068;2023-04-10T02:39:43;98400.19;;;1.80;96.76
3812;BME280;1921;49.368;11.068;2023-04-10T02:42:09;98380.75;;;1.64;96.20
3812;BME280;1921;49.368;11.068;2023-04-10T02:44:34;98386.41;;;1.69;96.08
3812;BME280;1921;49.368;11.068;2023-04-10T02:47:00;98425.09;;;1.93;96.07
3812;BME280;1921;49.368;11.068;2023-04-10T02:49:26;98430.66;;;1.86;95.17
3812;BME280;1921;49.368;11.068;2023-04-10T02:51:51;98404.50;;;1.67;95.32
3812;BME280;1921;49.368;11.068;2023-04-10T02:54:17;98405.53;;;1.65;94.95
3812;BME280;1921;49.368;11.068;2023-04-10T02:56:43;98418.09;;;1.69;94.75
3812;BME280;1921;49.368;11.068;2023-04-10T02:59:09;98405.31;;;1.55;94.98
3812;BME280;1921;49.368;11.068;2023-04-10T03:01:35;98386.19;;;1.46;95.22
3812;BME280;1921;49.368;11.068;2023-04-10T03:04:00;98443.69;;;1.83;95.12
3812;BME280;1921;49.368;11.068;2023-04-10T03:06:28;98413.34;;;1.63;95.67
3812;BME280;1921;49.368;11.068;2023-04-10T03:08:54;98404.28;;;1.57;95.25
3812;BME280;1921;49.368;11.068;2023-04-10T03:11:20;98431.34;;;1.76;95.40
3812;BME280;1921;49.368;11.068;2023-04-10T03:13:46;98430.13;;;1.69;95.13
3812;BME280;1921;49.368;11.068;2023-04-10T03:16:13;98391.44;;;1.45;95.42
3812;BME280;1921;49.368;11.068;2023-04-10T03:18:40;98411.78;;;1.60;95.46
3812;BME280;1921;49.368;11.068;2023-04-10T03:21:06;98385.75;;;1.40;95.25
3812;BME280;1921;49.368;11.068;2023-04-10T03:23:32;98406.56;;;1.49;95.19
3812;BME280;1921;49.368;11.068;2023-04-10T03:25:57;98414.75;;;1.54;94.65
3812;BME280;1921;49.368;11.068;2023-04-10T03:28:23;98434.63;;;1.65;95.58
3812;BME280;1921;49.368;11.068;2023-04-10T03:30:49;98390.63;;;1.17;98.17
3812;BME280;1921;49.368;11.068;2023-04-10T03:33:15;98402.72;;;1.02;100.00
3812;BME280;1921;49.368;11.068;2023-04-10T03:35:41;98401.31;;;1.11;99.12
3812;BME280;1921;49.368;11.068;2023-04-10T03:38:07;98404.63;;;1.13;98.36
3812;BME280;1921;49.368;11.068;2023-04-10T03:40:33;98376.66;;;1.08;97.45
3812;BME280;1921;49.368;11.068;2023-04-10T03:42:59;98404.00;;;1.22;97.09
3812;BME280;1921;49.368;11.068;2023-04-10T03:45:25;98439.72;;;1.40;97.20
3812;BME280;1921;49.368;11.068;2023-04-10T03:47:51;98367.06;;;0.98;97.38
3812;BME280;1921;49.368;11.068;2023-04-10T03:50:17;98403.09;;;1.23;96.97
3812;BME280;1921;49.368;11.068;2023-04-10T03:52:43;98399.69;;;1.23;96.61
3812;BME280;1921;49.368;11.068;2023-04-10T03:55:09;98391.16;;;1.22;96.16
3812;BME280;1921;49.368;11.068;2023-04-10T03:57:35;98410.50;;;1.28;96.24
3812;BME280;1921;49.368;11.068;2023-04-10T04:00:02;98422.66;;;1.39;96.24
3812;BME280;1921;49.368;11.068;2023-04-10T04:02:28;98374.38;;;1.04;96.11
3812;BME280;1921;49.368;11.068;2023-04-10T04:04:54;98449.50;;;1.47;96.33
3812;BME280;1921;49.368;11.068;2023-04-10T04:07:20;98441.38;;;1.41;96.42
3812;BME280;1921;49.368;11.068;2023-04-10T04:09:45;98372.19;;;0.98;96.02
3812;BME280;1921;49.368;11.068;2023-04-10T04:12:11;98398.22;;;1.06;96.62
3812;BME280;1921;49.368;11.068;2023-04-10T04:14:37;98388.47;;;1.11;96.54
3812;BME280;1921;49.368;11.068;2023-04-10T04:17:03;98295.97;;;0.46;97.22
3812;BME280;1921;49.368;11.068;2023-04-10T04:19:28;98384.34;;;1.08;97.09
3812;BME280;1921;49.368;11.068;2023-04-10T04:21:54;98371.28;;;0.99;96.90
3812;BME280;1921;49.368;11.068;2023-04-10T04:24:20;98418.31;;;1.26;97.10
3812;BME280;1921;49.368;11.068;2023-04-10T04:26:46;98381.25;;;1.03;96.91
3812;BME280;1921;49.368;11.068;2023-04-10T04:29:12;98387.09;;;1.05;96.83
3812;BME280;1921;49.368;11.068;2023-04-10T04:31:37;98406.78;;;1.19;96.73
3812;BME280;1921;49.368;11.068;2023-04-10T04:34:03;98375.41;;;1.01;96.97
3812;BME280;1921;49.368;11.068;2023-04-10T04:36:29;98356.66;;;0.87;96.72
3812;BME280;1921;49.368;11.068;2023-04-10T04:38:55;98391.41;;;1.05;96.95
3812;BME280;1921;49.368;11.068;2023-04-10T04:41:21;98363.25;;;0.91;97.49
3812;BME280;1921;49.368;11.068;2023-04-10T04:43:47;98432.41;;;1.33;97.31
3812;BME280;1921;49.368;11.068;2023-04-10T04:46:13;98449.28;;;1.38;97.31
3812;BME280;1921;49.368;11.068;2023-04-10T04:48:41;98393.09;;;1.06;97.44
3812;BME280;1921;49.368;11.068;2023-04-10T04:51:07;98404.94;;;1.21;97.82
3812;BME280;1921;49.368;11.068;2023-04-10T04:53:32;98445.94;;;1.63;99.26
3812;BME280;1921;49.368;11.068;2023-04-10T04:55:58;98451.94;;;1.88;100.00
3812;BME280;1921;49.368;11.068;2023-04-10T04:58:24;98430.25;;;2.05;100.00
3812;BME280;1921;49.368;11.068;2023-04-10T05:00:52;98445.63;;;2.43;100.00
3812;BME280;1921;49.368;11.068;2023-04-10T05:03:19;98421.19;;;2.62;100.00
3812;BME280;1921;49.368;11.068;2023-04-10T05:05:46;98436.53;;;3.00;100.00
3812;BME280;1921;49.368;11.068;2023-04-10T05:08:12;98417.22;;;3.30;100.00
3812;BME280;1921;49.368;11.068;2023-04-10T05:10:38;98406.28;;;3.61;100.00
3812;BME280;1921;49.368;11.068;2023-04-10T05:13:03;98400.84;;;3.99;100.00
3812;BME280;1921;49.368;11.068;2023-04-10T05:15:29;98415.97;;;4.49;100.00
3812;BME280;1921;49.368;11.068;2023-04-10T05:17:55;98402.09;;;4.72;100.00
3812;BME280;1921;49.368;11.068;2023-04-10T05:20:21;98428.47;;;5.30;99.30
3812;BME280;1921;49.368;11.068;2023-04-10T05:22:47;98412.22;;;5.60;96.66
3812;BME280;1921;49.368;11.068;2023-04-10T05:25:13;98435.50;;;6.02;90.20
3812;BME280;1921;49.368;11.068;2023-04-10T05:27:39;98399.78;;;5.75;83.12
3812;BME280;1921;49.368;11.068;2023-04-10T05:30:05;98441.72;;;5.58;74.38
3812;BME280;1921;49.368;11.068;2023-04-10T05:32:31;98452.47;;;5.74;81.04
3812;BME280;1921;49.368;11.068;2023-04-10T05:34:57;98455.16;;;5.84;72.37
3812;BME280;1921;49.368;11.068;2023-04-10T05:37:22;98405.16;;;5.09;75.79
3812;BME280;1921;49.368;11.068;2023-04-10T05:39:48;98429.97;;;4.90;79.25
3812;BME280;1921;49.368;11.068;2023-04-10T05:42:14;98429.41;;;4.97;82.33
3812;BME280;1921;49.368;11.068;2023-04-10T05:44:40;98434.94;;;5.78;80.96
3812;BME280;1921;49.368;11.068;2023-04-10T05:47:06;98411.28;;;6.03;79.73
3812;BME280;1921;49.368;11.068;2023-04-10T05:49:32;98427.19;;;6.60;79.00
3812;BME280;1921;49.368;11.068;2023-04-10T05:51:58;98407.03;;;6.83;77.81
3812;BME280;1921;49.368;11.068;2023-04-10T05:54:23;98404.03;;;6.87;75.41
3812;BME280;1921;49.368;11.068;2023-04-10T05:56:49;98414.38;;;6.68;76.26
3812;BME280;1921;49.368;11.068;2023-04-10T05:59:15;98455.00;;;7.17;77.21
3812;BME280;1921;49.368;11.068;2023-04-10T06:01:41;98392.19;;;6.35;72.46
3812;BME280;1921;49.368;11.068;2023-04-10T06:04:06;98430.47;;;6.31;75.41
3812;BME280;1921;49.368;11.068;2023-04-10T06:06:32;98426.56;;;6.77;80.57
3812;BME280;1921;49.368;11.068;2023-04-10T06:08:58;98408.31;;;6.98;80.03
3812;BME280;1921;49.368;11.068;2023-04-10T06:11:24;98449.28;;;7.62;80.37
3812;BME280;1921;49.368;11.068;2023-04-10T06:13:49;98416.22;;;7.25;76.53
3812;BME280;1921;49.368;11.068;2023-04-10T06:16:15;98427.44;;;7.16;77.48
3812;BME280;1921;49.368;11.068;2023-04-10T06:18:41;98407.22;;;7.49;78.34
3812;BME280;1921;49.368;11.068;2023-04-10T06:21:07;98388.47;;;7.74;78.26
3812;BME280;1921;49.368;11.068;2023-04-10T06:23:33;98397.53;;;8.07;76.29
3812;BME280;1921;49.368;11.068;2023-04-10T06:25:59;98427.50;;;8.49;75.06
3812;BME280;1921;49.368;11.068;2023-04-10T06:28:26;98409.84;;;8.52;73.12
3812;BME280;1921;49.368;11.068;2023-04-10T06:30:52;98411.41;;;8.63;71.71
3812;BME280;1921;49.368;11.068;2023-04-10T06:33:18;98372.91;;;8.49;70.84
3812;BME280;1921;49.368;11.068;2023-04-10T06:35:44;98393.78;;;8.84;70.40
3812;BME280;1921;49.368;11.068;2023-04-10T06:38:10;98412.03;;;9.20;71.26
3812;BME280;1921;49.368;11.068;2023-04-10T06:40:36;98387.25;;;9.34;67.22
3812;BME280;1921;49.368;11.068;2023-04-10T06:43:02;98399.13;;;9.36;67.16
3812;BME280;1921;49.368;11.068;2023-04-10T06:45:28;98382.44;;;9.21;69.53
3812;BME280;1921;49.368;11.068;2023-04-10T06:47:54;98378.84;;;9.40;67.98
3812;BME280;1921;49.368;11.068;2023-04-10T06:50:19;98411.69;;;9.59;68.85
3812;BME280;1921;49.368;11.068;2023-04-10T06:52:46;98423.38;;;9.98;69.61
3812;BME280;1921;49.368;11.068;2023-04-10T06:55:12;98372.00;;;10.17;67.59
3812;BME280;1921;49.368;11.068;2023-04-10T06:57:39;98409.34;;;9.99;67.48
3812;BME280;1921;49.368;11.068;2023-04-10T07:00:06;98392.25;;;9.97;67.04
3812;BME280;1921;49.368;11.068;2023-04-10T07:02:32;98423.03;;;10.54;67.30
3812;BME280;1921;49.368;11.068;2023-04-10T07:04:58;98416.66;;;10.22;66.79
3812;BME280;1921;49.368;11.068;2023-04-10T07:07:24;98382.19;;;10.62;64.89
3812;BME280;1921;49.368;11.068;2023-04-10T07:09:49;98448.84;;;11.23;63.40
3812;BME280;1921;49.368;11.068;2023-04-10T07:12:15;98382.28;;;11.19;62.00
3812;BME280;1921;49.368;11.068;2023-04-10T07:14:41;98412.81;;;11.76;59.68
3812;BME280;1921;49.368;11.068;2023-04-10T07:17:07;98397.13;;;11.76;60.29
3812;BME280;1921;49.368;11.068;2023-04-10T07:19:33;98427.69;;;11.92;59.88
3812;BME280;1921;49.368;11.068;2023-04-10T07:21:59;98387.47;;;12.09;58.69
3812;BME280;1921;49.368;11.068;2023-04-10T07:24:25;98393.25;;;12.44;55.77
3812;BME280;1921;49.368;11.068;2023-04-10T07:26:51;98416.28;;;12.79;56.39
3812;BME280;1921;49.368;11.068;2023-04-10T07:29:17;98408.28;;;12.50;57.15
3812;BME280;1921;49.368;11.068;2023-04-10T07:31:43;98374.41;;;12.79;57.05
3812;BME280;1921;49.368;11.068;2023-04-10T07:34:10;98380.69;;;13.01;54.50
3812;BME280;1921;49.368;11.068;2023-04-10T07:36:36;98360.94;;;12.59;56.54
3812;BME280;1921;49.368;11.068;2023-04-10T07:39:02;98373.34;;;12.65;57.47
3812;BME280;1921;49.368;11.068;2023-04-10T07:41:28;98412.28;;;13.31;54.55
3812;BME280;1921;49.368;11.068;2023-04-10T07:43:54;98388.84;;;13.06;55.27
3812;BME280;1921;49.368;11.068;2023-04-10T07:46:20;98368.22;;;12.80;55.12
3812;BME280;1921;49.368;11.068;2023-04-10T07:48:46;98344.66;;;12.80;54.31
3812;BME280;1921;49.368;11.068;2023-04-10T07:51:12;98395.22;;;12.73;55.14
3812;BME280;1921;49.368;11.068;2023-04-10T07:53:38;98398.66;;;13.35;53.71
3812;BME280;1921;49.368;11.068;2023-04-10T07:56:05;98326.78;;;12.84;53.52
3812;BME280;1921;49.368;11.068;2023-04-10T07:58:31;98339.16;;;12.98;52.88
3812;BME280;1921;49.368;11.068;2023-04-10T08:00:57;98350.91;;;13.25;51.88
3812;BME280;1921;49.368;11.068;2023-04-10T08:03:25;98344.91;;;13.39;51.33
3812;BME280;1921;49.368;11.068;2023-04-10T08:05:51;98350.91;;;13.25;52.06
3812;BME280;1921;49.368;11.068;2023-04-10T08:08:16;98331.59;;;13.26;51.36
3812;BME280;1921;49.368;11.068;2023-04-10T08:10:42;98371.91;;;13.78;50.81
3812;BME280;1921;49.368;11.068;2023-04-10T08:13:10;98387.34;;;14.10;50.19
3812;BME280;1921;49.368;11.068;2023-04-10T08:15:35;98380.25;;;14.40;49.99
3812;BME280;1921;49.368;11.068;2023-04-10T08:18:01;98372.13;;;14.50;48.99
3812;BME280;1921;49.368;11.068;2023-04-10T08:20:27;98380.84;;;14.87;48.00
3812;BME280;1921;49.368;11.068;2023-04-10T08:22:53;98345.47;;;15.04;47.92
3812;BME280;1921;49.368;11.068;2023-04-10T08:25:19;98379.38;;;15.42;47.34
3812;BME280;1921;49.368;11.068;2023-04-10T08:27:45;98367.09;;;15.27;46.53
3812;BME280;1921;49.368;11.068;2023-04-10T08:30:11;98349.84;;;14.97;46.48
3812;BME280;1921;49.368;11.068;2023-04-10T08:32:37;98359.56;;;15.46;45.43
3812;BME280;1921;49.368;11.068;2023-04-10T08:35:04;98353.72;;;15.01;46.37
3812;BME280;1921;49.368;11.068;2023-04-10T08:37:30;98328.19;;;15.38;45.54
3812;BME280;1921;49.368;11.068;2023-04-10T08:39:56;98338.75;;;16.00;44.36
3812;BME280;1921;49.368;11.068;2023-04-10T08:42:23;98357.34;;;16.33;44.55
3812;BME280;1921;49.368;11.068;2023-04-10T08:44:49;98339.34;;;16.78;42.29
3812;BME280;1921;49.368;11.068;2023-04-10T08:47:19;98242.19;;;16.62;41.26
3812;BME280;1921;49.368;11.068;2023-04-10T08:49:55;98354.00;;;16.53;42.77
3812;BME280;1921;49.368;11.068;2023-04-10T08:52:23;98363.53;;;17.15;42.31
3812;BME280;1921;49.368;11.068;2023-04-10T08:54:54;98299.47;;;17.41;40.57
3812;BME280;1921;49.368;11.068;2023-04-10T08:57:21;98319.94;;;17.52;40.71
3812;BME280;1921;49.368;11.068;2023-04-10T08:59:48;98333.53;;;17.49;40.57
3812;BME280;1921;49.368;11.068;2023-04-10T09:02:14;98344.28;;;17.67;40.96
3812;BME280;1921;49.368;11.068;2023-04-10T09:04:51;98356.44;;;17.42;42.26
3812;BME280;1921;49.368;11.068;2023-04-10T09:07:19;98350.81;;;17.71;40.55
3812;BME280;1921;49.368;11.068;2023-04-10T09:09:45;98349.28;;;18.22;39.63
3812;BME280;1921;49.368;11.068;2023-04-10T09:12:12;98331.78;;;18.34;38.75
3812;BME280;1921;49.368;11.068;2023-04-10T09:14:40;98313.44;;;18.91;37.08
3812;BME280;1921;49.368;11.068;2023-04-10T09:19:45;98319.91;;;19.51;36.19
3812;BME280;1921;49.368;11.068;2023-04-10T09:22:11;98307.03;;;19.80;36.01
3812;BME280;1921;49.368;11.068;2023-04-10T09:24:42;98313.47;;;19.66;35.74
3812;BME280;1921;49.368;11.068;2023-04-10T09:27:09;98288.78;;;19.72;35.13
3812;BME280;1921;49.368;11.068;2023-04-10T09:29:43;98331.41;;;20.07;34.98
3812;BME280;1921;49.368;11.068;2023-04-10T09:32:12;98301.50;;;19.63;35.26
3812;BME280;1921;49.368;11.068;2023-04-10T09:35:05;98304.34;;;19.61;35.59
3812;BME280;1921;49.368;11.068;2023-04-10T09:37:35;98312.41;;;19.92;34.45
3812;BME280;1921;49.368;11.068;2023-04-10T09:40:02;98324.31;;;19.57;35.22
3812;BME280;1921;49.368;11.068;2023-04-10T09:42:36;98264.09;;;19.78;34.15
3812;BME280;1921;49.368;11.068;2023-04-10T09:45:03;98309.81;;;20.40;33.70
3812;BME280;1921;49.368;11.068;2023-04-10T09:47:30;98284.28;;;20.64;33.28
3812;BME280;1921;49.368;11.068;2023-04-10T09:49:58;98277.25;;;20.69;32.94
3812;BME280;1921;49.368;11.068;2023-04-10T09:52:33;98262.88;;;20.47;33.42
3812;BME280;1921;49.368;11.068;2023-04-10T09:55:06;98310.19;;;21.04;32.50
3812;BME280;1921;49.368;11.068;2023-04-10T09:57:35;98237.22;;;21.01;31.96
3812;BME280;1921;49.368;11.068;2023-04-10T10:00:03;98268.81;;;22.08;30.54
3812;BME280;1921;49.368;11.068;2023-04-10T10:02:36;98266.41;;;21.13;31.61
3812;BME280;1921;49.368;11.068;2023-04-10T10:05:04;98266.94;;;20.91;32.12
3812;BME280;1921;49.368;11.068;2023-04-10T10:07:30;98245.56;;;19.96;33.27
3812;BME280;1921;49.368;11.068;2023-04-10T10:09:57;98244.53;;;20.76;32.40
3812;BME280;1921;49.368;11.068;2023-04-10T10:18:44;98220.91;;;20.86;31.92
3812;BME280;1921;49.368;11.068;2023-04-10T10:21:12;98195.41;;;20.50;31.95
3812;BME280;1921;49.368;11.068;2023-04-10T10:23:39;98217.72;;;20.95;31.97
3812;BME280;1921;49.368;11.068;2023-04-10T10:26:07;98227.31;;;21.08;31.59
3812;BME280;1921;49.368;11.068;2023-04-10T10:28:35;98218.44;;;21.26;31.34
3812;BME280;1921;49.368;11.068;2023-04-10T10:31:02;98200.00;;;21.43;31.92
3812;BME280;1921;49.368;11.068;2023-04-10T10:33:29;98128.50;;;21.65;30.71
3812;BME280;1921;49.368;11.068;2023-04-10T10:36:02;98200.44;;;22.15;30.98
3812;BME280;1921;49.368;11.068;2023-04-10T10:38:30;98202.47;;;22.70;30.06
3812;BME280;1921;49.368;11.068;2023-04-10T10:41:10;98229.34;;;23.36;29.54
3812;BME280;1921;49.368;11.068;2023-04-10T10:44:22;98228.63;;;22.45;29.81
3812;BME280;1921;49.368;11.068;2023-04-10T10:47:06;98175.84;;;22.37;29.75
3812;BME280;1921;49.368;11.068;2023-04-10T10:49:57;98226.69;;;22.12;30.12
3812;BME280;1921;49.368;11.068;2023-04-10T10:52:46;98185.63;;;20.02;33.19
3812;BME280;1921;49.368;11.068;2023-04-10T10:58:08;98153.06;;;19.28;33.82
3812;BME280;1921;49.368;11.068;2023-04-10T11:05:51;98214.41;;;21.35;30.41
3812;BME280;1921;49.368;11.068;2023-04-10T11:08:36;98150.47;;;21.48;30.72
3812;BME280;1921;49.368;11.068;2023-04-10T11:11:09;98207.34;;;20.94;31.44
3812;BME280;1921;49.368;11.068;2023-04-10T11:16:15;98175.38;;;20.77;30.66
3812;BME280;1921;49.368;11.068;2023-04-10T11:21:14;98151.38;;;20.30;31.51
3812;BME280;1921;49.368;11.068;2023-04-10T11:31:58;98132.47;;;20.15;30.52
3812;BME280;1921;49.368;11.068;2023-04-10T11:34:24;98138.38;;;19.69;32.29
3812;BME280;1921;49.368;11.068;2023-04-10T11:36:52;98132.13;;;19.81;31.71
3812;BME280;1921;49.368;11.068;2023-04-10T11:39:19;98153.91;;;20.13;31.81
3812;BME280;1921;49.368;11.068;2023-04-10T11:41:49;98123.50;;;19.86;32.29
3812;BME280;1921;49.368;11.068;2023-04-10T11:44:30;98143.13;;;20.68;30.90
3812;BME280;1921;49.368;11.068;2023-04-10T11:46:57;98121.06;;;20.68;30.59
3812;BME280;1921;49.368;11.068;2023-04-10T11:49:26;98100.34;;;20.65;29.75
3812;BME280;1921;49.368;11.068;2023-04-10T11:51:52;98146.13;;;20.42;30.71
3812;BME280;1921;49.368;11.068;2023-04-10T11:54:23;98125.06;;;20.05;31.38
3812;BME280;1921;49.368;11.068;2023-04-10T11:57:15;98151.59;;;20.47;31.17
3812;BME280;1921;49.368;11.068;2023-04-10T11:59:49;98103.50;;;17.47;35.42
3812;BME280;1921;49.368;11.068;2023-04-10T12:02:15;98100.88;;;18.48;32.82
3812;BME280;1921;49.368;11.068;2023-04-10T12:04:42;98081.94;;;18.58;33.62
3812;BME280;1921;49.368;11.068;2023-04-10T12:07:09;98133.28;;;18.62;33.66
3812;BME280;1921;49.368;11.068;2023-04-10T12:09:34;98113.25;;;18.79;34.01
3812;BME280;1921;49.368;11.068;2023-04-10T12:12:03;98085.59;;;17.04;35.51
3812;BME280;1921;49.368;11.068;2023-04-10T12:14:35;98094.03;;;18.16;34.47
3812;BME280;1921;49.368;11.068;2023-04-10T12:17:07;98088.06;;;18.52;33.91
3812;BME280;1921;49.368;11.068;2023-04-10T12:19:34;98081.94;;;18.58;33.59
3812;BME280;1921;49.368;11.068;2023-04-10T12:22:01;98082.19;;;18.75;32.87
3812;BME280;1921;49.368;11.068;2023-04-10T12:27:22;98117.19;;;18.14;34.45
3812;BME280;1921;49.368;11.068;2023-04-10T12:29:52;98056.78;;;17.99;34.00
3812;BME280;1921;49.368;11.068;2023-04-10T12:32:18;98125.44;;;18.80;32.34
3812;BME280;1921;49.368;11.068;2023-04-10T12:34:52;98078.34;;;18.96;31.69
3812;BME280;1921;49.368;11.068;2023-04-10T12:37:19;98101.84;;;19.41;31.69
3812;BME280;1921;49.368;11.068;2023-04-10T12:39:45;98099.31;;;20.12;30.89
3812;BME280;1921;49.368;11.068;2023-04-10T12:42:21;98047.72;;;20.15;30.97
3812;BME280;1921;49.368;11.068;2023-04-10T12:44:56;98054.69;;;19.98;31.67
3812;BME280;1921;49.368;11.068;2023-04-10T12:47:24;98068.19;;;19.48;32.03
3812;BME280;1921;49.368;11.068;2023-04-10T12:50:07;98031.53;;;19.81;31.22
3812;BME280;1921;49.368;11.068;2023-04-10T12:52:35;98012.47;;;19.43;31.49
3812;BME280;1921;49.368;11.068;2023-04-10T12:55:18;98075.06;;;19.97;32.14
3812;BME280;1921;49.368;11.068;2023-04-10T12:57:46;98045.69;;;19.87;32.31
3812;BME280;1921;49.368;11.068;2023-04-10T13:00:18;98040.94;;;20.31;31.93
3812;BME280;1921;49.368;11.068;2023-04-10T13:02:45;98030.47;;;20.12;31.21
3812;BME280;1921;49.368;11.068;2023-04-10T13:05:11;98033.16;;;20.59;30.57
3812;BME280;1921;49.368;11.068;2023-04-10T13:07:38;98031.06;;;20.85;29.92
3812;BME280;1921;49.368;11.068;2023-04-10T13:10:05;98062.47;;;21.28;29.57
3812;BME280;1921;49.368;11.068;2023-04-10T13:12:32;98018.72;;;20.90;29.61
3812;BME280;1921;49.368;11.068;2023-04-10T13:14:59;97996.66;;;20.50;29.84
3812;BME280;1921;49.368;11.068;2023-04-10T13:17:26;98042.97;;;20.05;30.61
3812;BME280;1921;49.368;11.068;2023-04-10T13:19:52;98063.03;;;20.25;30.28
3812;BME280;1921;49.368;11.068;2023-04-10T13:22:18;98030.25;;;20.26;30.74
3812;BME280;1921;49.368;11.068;2023-04-10T13:24:44;98080.97;;;20.64;30.10
3812;BME280;1921;49.368;11.068;2023-04-10T13:27:11;98007.06;;;21.03;29.86
3812;BME280;1921;49.368;11.068;2023-04-10T13:29:39;98014.22;;;21.71;29.92
3812;BME280;1921;49.368;11.068;2023-04-10T13:32:05;97964.41;;;21.62;28.68
3812;BME280;1921;49.368;11.068;2023-04-10T13:34:32;97976.53;;;21.58;28.38
3812;BME280;1921;49.368;11.068;2023-04-10T13:36:58;97903.53;;;20.34;30.06
3812;BME280;1921;49.368;11.068;2023-04-10T13:39:27;98014.75;;;21.05;30.08
3812;BME280;1921;49.368;11.068;2023-04-10T13:41:53;98015.16;;;20.38;31.15
3812;BME280;1921;49.368;11.068;2023-04-10T13:44:18;98022.53;;;20.36;30.51
3812;BME280;1921;49.368;11.068;2023-04-10T13:46:44;97994.09;;;20.31;29.92
3812;BME280;1921;49.368;11.068;2023-04-10T13:49:10;97993.38;;;20.01;29.81
3812;BME280;1921;49.368;11.068;2023-04-10T13:51:36;97950.66;;;19.97;29.78
3812;BME280;1921;49.368;11.068;2023-04-10T13:54:02;98006.91;;;19.93;30.84
3812;BME280;1921;49.368;11.068;2023-04-10T13:56:29;97942.09;;;19.72;30.77
3812;BME280;1921;49.368;11.068;2023-04-10T13:58:55;97970.81;;;20.22;30.58
3812;BME280;1921;49.368;11.068;2023-04-10T14:01:21;97938.31;;;19.79;30.54